Time;durP1;ratioP1;P1;durP2;ratioP2;P2;SDS_P1;SDS_P2;PMS_P1;PMS_P2;Temp;Humidity;BMP_temperature;BMP_pressure;BME280_temperature;BME280_humidity;BME280_pressure;Samples;Min_cycle;Max_cycle;Signal;HPM_P1;HPM_P2
2022/02/10 00:03:32;;;;;;;128.85;25.77;;;6.00;98.30;;;;;;4932908;29;20078;-86
2022/02/10 00:06:30;;;;;;;142.10;28.63;;;6.10;98.30;;;;;;4929280;29;20036;-86
2022/02/10 00:14:42;;;;;;;140.85;28.70;;;6.10;98.30;;;;;;4930897;29;20032;-86
2022/02/10 00:17:32;;;;;;;125.85;25.92;;;6.10;98.30;;;;;;4924228;29;20365;-86
2022/02/10 00:20:13;;;;;;;117.50;25.92;;;6.20;98.30;;;;;;4947655;28;20387;-86
2022/02/10 00:26:15;;;;;;;119.70;26.35;;;6.20;98.30;;;;;;4930452;29;20050;-86
2022/02/10 00:34:32;;;;;;;111.68;25.17;;;6.30;98.30;;;;;;4925248;29;20078;-86
2022/02/10 00:36:37;;;;;;;121.57;25.33;;;6.30;98.30;;;;;;4924066;29;20046;-86
2022/02/10 00:39:24;;;;;;;121.95;25.40;;;6.30;98.30;;;;;;4932574;29;20086;-86
2022/02/10 00:41:49;;;;;;;118.82;25.95;;;6.30;98.30;;;;;;4926843;29;20024;-86
2022/02/10 00:44:15;;;;;;;119.43;25.67;;;6.40;98.30;;;;;;4932052;29;20032;-86
2022/02/10 00:46:40;;;;;;;125.78;24.55;;;6.40;98.40;;;;;;4940941;28;20046;-86
2022/02/10 00:49:08;;;;;;;111.88;23.88;;;6.40;98.30;;;;;;4929583;29;20115;-86
2022/02/10 00:51:33;;;;;;;120.75;25.55;;;6.40;98.40;;;;;;4943330;28;20469;-86
2022/02/10 00:54:01;;;;;;;108.03;25.40;;;6.40;98.40;;;;;;4932968;29;20036;-86
2022/02/10 00:56:27;;;;;;;120.35;26.08;;;6.40;98.40;;;;;;4951598;28;20063;-86
2022/02/10 00:59:07;;;;;;;99.60;23.55;;;6.40;98.40;;;;;;4921846;29;20033;-86
2022/02/10 01:07:12;;;;;;;109.68;23.85;;;6.40;98.40;;;;;;4932599;29;20075;-85
2022/02/10 01:12:41;;;;;;;110.35;22.98;;;6.40;98.40;;;;;;4920952;29;20144;-86
2022/02/10 01:31:33;;;;;;;93.32;23.55;;;6.40;98.40;;;;;;4925771;29;20094;-86
2022/02/10 01:33:58;;;;;;;104.40;21.50;;;6.40;98.50;;;;;;4933699;29;20545;-86
2022/02/10 01:36:24;;;;;;;100.10;22.20;;;6.40;98.40;;;;;;4932739;29;20107;-86
2022/02/10 01:38:50;;;;;;;85.43;21.40;;;6.40;98.40;;;;;;4927761;29;20032;-86
2022/02/10 01:58:03;;;;;;;80.05;18.88;;;6.30;98.40;;;;;;4931164;29;20038;-86
2022/02/10 02:03:25;;;;;;;85.78;18.98;;;6.30;98.40;;;;;;4933779;29;20042;-86
2022/02/10 02:06:02;;;;;;;69.85;17.98;;;6.30;98.40;;;;;;4928914;29;20576;-86
2022/02/10 02:08:30;;;;;;;70.72;18.27;;;6.30;98.40;;;;;;4921111;29;20136;-86
2022/02/10 02:10:56;;;;;;;64.13;18.42;;;6.30;98.40;;;;;;4927497;29;20049;-86
2022/02/10 02:13:22;;;;;;;85.07;20.42;;;6.30;98.50;;;;;;4933721;29;20027;-86
2022/02/10 02:15:50;;;;;;;69.93;19.67;;;6.30;98.50;;;;;;4937156;28;20030;-86
2022/02/10 02:18:16;;;;;;;80.47;19.83;;;6.30;98.50;;;;;;4940958;28;20032;-86
2022/02/10 02:20:47;;;;;;;80.43;20.27;;;6.30;98.50;;;;;;4931051;29;20448;-86
2022/02/10 02:23:14;;;;;;;79.57;20.38;;;6.30;98.50;;;;;;4932037;29;20036;-86
2022/02/10 02:25:40;;;;;;;97.15;21.25;;;6.30;98.50;;;;;;4945421;28;20040;-86
2022/02/10 02:28:09;;;;;;;107.05;22.45;;;6.30;98.40;;;;;;4922843;29;20032;-86
2022/02/10 02:30:46;;;;;;;86.40;20.85;;;6.30;98.50;;;;;;4938710;28;20401;-86
2022/02/10 02:36:19;;;;;;;119.32;23.08;;;6.40;98.50;;;;;;4922252;29;20032;-86
2022/02/10 03:08:48;;;;;;;69.68;17.13;;;6.40;98.50;;;;;;4920206;29;20028;-86
2022/02/10 03:11:15;;;;;;;71.05;17.35;;;6.30;98.50;;;;;;4932663;29;20030;-86
2022/02/10 03:13:48;;;;;;;78.50;18.67;;;6.40;98.50;;;;;;4930118;29;20035;-86
2022/02/10 03:19:16;;;;;;;64.07;16.67;;;6.30;98.50;;;;;;4929182;29;20039;-85
2022/02/10 04:00:34;;;;;;;65.00;13.98;;;6.20;98.50;;;;;;4929709;29;20046;-86
2022/02/10 04:16:17;;;;;;;63.28;14.18;;;6.30;98.50;;;;;;4930633;29;20568;-86
2022/02/10 04:19:36;;;;;;;81.75;13.45;;;6.30;98.50;;;;;;4934165;29;20163;-86
2022/02/10 04:21:51;;;;;;;70.63;13.52;;;6.30;98.50;;;;;;4924647;29;20556;-86
2022/02/10 04:32:33;;;;;;;74.18;13.70;;;6.30;98.60;;;;;;4932422;29;20472;-86
2022/02/10 04:37:38;;;;;;;49.67;13.10;;;6.30;98.50;;;;;;4918248;29;20040;-86
2022/02/10 04:38:31;;;;;;;51.90;13.00;;;6.30;98.60;;;;;;4922084;29;20084;-86
2022/02/10 04:57:03;;;;;;;105.95;20.20;;;6.50;98.70;;;;;;4924762;29;20066;-86
2022/02/10 05:02:29;;;;;;;92.72;22.83;;;6.60;98.70;;;;;;4930610;29;20028;-86
2022/02/10 05:05:24;;;;;;;99.75;23.63;;;6.70;98.70;;;;;;4935578;29;20027;-86
2022/02/10 05:18:34;;;;;;;141.00;30.05;;;6.80;98.70;;;;;;4925496;29;20484;-86
2022/02/10 05:21:12;;;;;;;141.05;31.38;;;6.80;98.70;;;;;;4935232;29;20031;-86
2022/02/10 05:34:00;;;;;;;168.18;36.13;;;7.00;98.70;;;;;;4925690;29;20452;-86
2022/02/10 05:36:29;;;;;;;171.35;39.38;;;7.00;98.70;;;;;;4933113;29;20087;-86
2022/02/10 05:39:07;;;;;;;170.68;38.70;;;7.00;98.70;;;;;;4932688;29;20539;-86
2022/02/10 05:44:31;;;;;;;178.98;39.17;;;7.00;98.70;;;;;;4931099;29;20050;-86
2022/02/10 05:47:40;;;;;;;190.40;43.65;;;7.00;98.70;;;;;;4931442;29;20042;-85
2022/02/10 05:50:33;;;;;;;173.30;39.13;;;7.00;98.70;;;;;;4922232;29;20401;-86
2022/02/10 06:01:38;;;;;;;165.68;38.08;;;6.90;98.70;;;;;;4914983;29;20109;-86
2022/02/10 06:52:19;;;;;;;14.40;4.97;;;6.60;98.50;;;;;;4928479;29;20451;-86
2022/02/10 06:54:59;;;;;;;10.38;3.78;;;6.50;98.50;;;;;;4931282;29;20087;-86
2022/02/10 07:08:09;;;;;;;6.32;2.88;;;6.30;98.50;;;;;;4930109;29;20027;-85
2022/02/10 07:56:11;;;;;;;8.55;3.85;;;6.10;98.40;;;;;;4939200;28;20527;-85
2022/02/10 09:04:00;;;;;;;7.82;4.65;;;5.90;98.10;;;;;;4932792;29;20091;-85
2022/02/10 09:07:00;;;;;;;12.82;5.05;;;5.90;98.10;;;;;;4933159;29;20024;-85
2022/02/10 09:18:18;;;;;;;13.10;5.13;;;6.20;98.10;;;;;;4941379;29;20024;-85
2022/02/10 10:00:26;;;;;;;10.75;5.50;;;6.50;96.40;;;;;;4933198;29;20031;-85
2022/02/10 10:03:13;;;;;;;9.75;6.22;;;6.50;96.10;;;;;;4921239;29;20557;-85
2022/02/10 10:05:52;;;;;;;11.00;6.60;;;6.50;95.80;;;;;;4949618;28;20027;-85
2022/02/10 10:08:33;;;;;;;10.70;6.78;;;6.50;95.60;;;;;;4918952;28;20107;-85
2022/02/10 10:11:41;;;;;;;9.63;6.68;;;6.60;95.50;;;;;;4931161;29;20522;-85
2022/02/10 10:14:21;;;;;;;13.00;7.55;;;6.50;95.20;;;;;;4936076;29;20118;-85
2022/02/10 10:50:49;;;;;;;16.65;9.75;;;6.60;94.90;;;;;;4925857;29;20039;-85
2022/02/10 10:53:23;;;;;;;13.82;9.27;;;6.60;94.80;;;;;;4924982;29;20058;-85
2022/02/10 10:56:01;;;;;;;17.13;8.43;;;6.50;94.60;;;;;;4929040;29;20044;-84
2022/02/10 11:07:17;;;;;;;16.40;8.43;;;6.70;94.60;;;;;;4937961;29;20035;-85
2022/02/10 11:41:08;;;;;;;8.73;4.80;;;7.00;93.00;;;;;;4927250;29;20062;-84
2022/02/10 11:43:48;;;;;;;10.90;4.60;;;7.00;92.30;;;;;;4932668;29;20483;-84
2022/02/10 13:36:09;;;;;;;7.05;1.95;;;8.10;76.90;;;;;;4930994;29;20031;-85
2022/02/10 14:14:18;;;;;;;6.75;1.83;;;8.20;78.80;;;;;;4946786;29;20101;-84
2022/02/10 14:16:52;;;;;;;11.13;2.35;;;8.00;79.00;;;;;;4925840;29;20074;-84
2022/02/10 14:19:37;;;;;;;8.10;2.50;;;7.90;79.90;;;;;;4924241;29;20028;-84
2022/02/10 14:27:41;;;;;;;8.35;2.42;;;7.50;81.60;;;;;;4928023;29;20039;-84
2022/02/10 14:30:07;;;;;;;6.72;2.17;;;7.40;81.70;;;;;;4937710;29;20035;-84
2022/02/10 14:32:39;;;;;;;8.85;2.72;;;7.40;82.20;;;;;;4938033;28;20620;-84
2022/02/10 14:35:15;;;;;;;6.30;2.30;;;7.30;82.00;;;;;;4931610;29;20032;-84
2022/02/10 15:21:39;;;;;;;10.23;1.90;;;7.00;81.00;;;;;;4927936;29;20100;-84
2022/02/10 15:36:01;;;;;;;8.00;1.98;;;6.80;81.80;;;;;;4923647;29;20028;-85
2022/02/10 15:48:57;;;;;;;8.75;2.10;;;6.70;82.70;;;;;;4933051;29;20344;-85
2022/02/10 15:54:24;;;;;;;8.95;1.73;;;6.60;83.30;;;;;;4932807;29;20374;-84
2022/02/10 16:18:22;;;;;;;7.07;2.08;;;6.30;85.00;;;;;;4923344;29;20488;-84
2022/02/10 16:20:56;;;;;;;3.97;1.55;;;6.10;86.50;;;;;;4925633;29;20039;-84
2022/02/10 16:23:24;;;;;;;2.55;1.08;;;6.10;86.10;;;;;;4936261;29;20066;-84
2022/02/10 16:26:01;;;;;;;4.57;1.63;;;5.90;85.50;;;;;;4950740;28;20561;-84
2022/02/10 16:28:28;;;;;;;10.25;1.83;;;5.80;85.50;;;;;;4925584;29;20484;-84
2022/02/10 16:30:55;;;;;;;6.00;1.60;;;5.60;84.80;;;;;;4948498;28;20110;-85
2022/02/10 16:33:21;;;;;;;8.30;1.25;;;5.60;85.30;;;;;;4931172;29;20127;-84
2022/02/10 16:35:46;;;;;;;5.78;1.30;;;5.50;84.90;;;;;;4934996;29;20118;-84
2022/02/10 16:38:12;;;;;;;4.38;1.35;;;5.50;84.70;;;;;;4918012;29;20099;-84
2022/02/10 16:40:39;;;;;;;8.93;1.67;;;5.50;84.10;;;;;;4950146;28;20035;-84
2022/02/10 16:43:05;;;;;;;8.52;1.83;;;5.60;84.00;;;;;;4921442;29;20027;-84
2022/02/10 16:45:31;;;;;;;6.03;1.35;;;5.60;84.30;;;;;;4939667;29;20036;-84
2022/02/10 16:47:57;;;;;;;8.68;1.40;;;5.60;84.70;;;;;;4928376;29;20063;-85
2022/02/10 16:50:23;;;;;;;4.20;1.02;;;5.60;85.40;;;;;;4928750;29;20443;-84
2022/02/10 16:52:56;;;;;;;9.82;1.98;;;5.60;85.00;;;;;;4926509;29;20032;-84
2022/02/10 17:03:28;;;;;;;5.40;1.60;;;5.60;86.20;;;;;;4926689;29;20090;-85
2022/02/10 17:14:09;;;;;;;9.23;2.60;;;5.50;86.90;;;;;;4933499;29;20095;-85
2022/02/10 17:19:33;;;;;;;9.02;3.20;;;5.40;87.50;;;;;;4926515;29;20042;-85
2022/02/10 17:35:34;;;;;;;10.55;2.10;;;5.10;88.30;;;;;;4936476;29;20028;-86
2022/02/10 17:45:54;;;;;;;6.95;1.88;;;5.10;87.70;;;;;;4925049;29;20028;-87
2022/02/10 17:51:27;;;;;;;9.90;2.20;;;5.10;87.50;;;;;;4934628;29;20023;-87
2022/02/10 17:53:52;;;;;;;11.13;2.28;;;5.00;87.60;;;;;;4926297;29;20508;-87
2022/02/10 17:56:17;;;;;;;8.25;1.95;;;5.00;87.10;;;;;;4952569;28;20051;-87
2022/02/10 17:58:43;;;;;;;7.35;1.95;;;4.90;87.20;;;;;;4922838;29;20032;-87
2022/02/10 18:01:10;;;;;;;11.88;1.85;;;4.90;87.20;;;;;;4951517;28;20023;-87
2022/02/10 18:03:36;;;;;;;7.70;1.65;;;4.80;87.50;;;;;;4935181;28;20055;-87
2022/02/10 18:08:47;;;;;;;10.13;2.13;;;4.80;87.60;;;;;;4926744;29;20047;-87
2022/02/10 18:19:22;;;;;;;10.85;1.98;;;4.50;88.30;;;;;;4932194;29;20032;-86
2022/02/10 18:24:44;;;;;;;7.07;1.70;;;4.50;88.60;;;;;;4938665;29;20051;-86
2022/02/10 18:27:20;;;;;;;11.05;2.00;;;4.40;88.70;;;;;;4919544;29;20036;-86
2022/02/10 18:54:30;;;;;;;6.13;2.20;;;4.20;89.80;;;;;;4932726;29;20093;-86
2022/02/10 19:01:41;;;;;;;4.97;1.65;;;4.00;90.90;;;;;;4920462;29;20062;-85
2022/02/10 19:10:22;;;;;;;10.20;2.38;;;4.00;90.90;;;;;;4933100;29;20365;-85
2022/02/10 19:12:53;;;;;;;10.88;2.30;;;4.00;90.70;;;;;;4948239;29;20071;-82
2022/02/10 19:15:22;;;;;;;10.00;2.10;;;4.00;90.70;;;;;;4952790;29;20034;-83
2022/02/10 19:17:48;;;;;;;11.32;2.40;;;4.00;90.70;;;;;;4937108;29;20039;-83
2022/02/10 19:20:15;;;;;;;11.50;1.92;;;4.00;90.60;;;;;;4932842;29;20024;-83
2022/02/10 19:22:43;;;;;;;10.52;2.20;;;3.90;90.60;;;;;;4935473;29;20038;-83
2022/02/10 19:25:10;;;;;;;6.65;1.98;;;3.90;90.70;;;;;;4926126;29;20027;-84
2022/02/10 19:27:37;;;;;;;15.63;2.35;;;3.90;90.60;;;;;;4951100;29;20043;-83
2022/02/10 19:30:06;;;;;;;10.60;1.92;;;3.80;90.50;;;;;;4938937;29;20115;-84
2022/02/10 19:32:32;;;;;;;12.05;2.13;;;3.80;90.70;;;;;;4929140;29;20559;-85
2022/02/10 19:34:59;;;;;;;8.70;2.58;;;3.80;90.80;;;;;;4949545;28;20027;-85
2022/02/10 19:37:26;;;;;;;11.07;2.85;;;3.80;90.80;;;;;;4948587;29;20026;-85
2022/02/10 19:39:57;;;;;;;13.85;2.30;;;3.70;90.90;;;;;;4935438;29;20079;-85
2022/02/10 19:42:26;;;;;;;7.53;2.10;;;3.70;91.00;;;;;;4932410;29;20131;-86
2022/02/10 19:44:57;;;;;;;16.50;3.10;;;3.70;91.10;;;;;;4952155;28;20484;-86
2022/02/10 19:47:22;;;;;;;11.90;2.85;;;3.60;91.10;;;;;;4931065;28;20038;-86
2022/02/10 19:49:48;;;;;;;10.20;1.98;;;3.70;91.10;;;;;;4938035;29;20399;-85
2022/02/10 19:52:15;;;;;;;10.32;2.08;;;3.60;91.10;;;;;;4945922;29;20083;-86
2022/02/10 19:54:46;;;;;;;14.50;2.65;;;3.60;91.10;;;;;;4925642;29;20048;-86
2022/02/10 19:57:12;;;;;;;10.70;2.35;;;3.60;91.00;;;;;;4946779;29;20024;-86
2022/02/10 19:59:37;;;;;;;11.80;2.33;;;3.60;91.00;;;;;;4935521;29;20028;-85
2022/02/10 20:02:05;;;;;;;10.77;2.42;;;3.60;90.90;;;;;;4935146;29;20015;-85
2022/02/10 20:04:31;;;;;;;14.00;2.20;;;3.70;90.70;;;;;;4953975;29;20075;-86
2022/02/10 20:06:57;;;;;;;13.95;2.67;;;3.70;90.40;;;;;;4938565;29;20427;-86
2022/02/10 20:09:24;;;;;;;10.02;2.22;;;3.70;90.40;;;;;;4935694;29;20036;-86
2022/02/10 20:11:51;;;;;;;12.65;2.38;;;3.60;90.30;;;;;;4948236;29;20529;-86
2022/02/10 20:14:19;;;;;;;8.95;2.40;;;3.50;90.40;;;;;;4929130;29;20494;-86
2022/02/10 20:16:44;;;;;;;12.18;2.00;;;3.50;90.60;;;;;;4931355;29;20027;-86
2022/02/10 20:19:10;;;;;;;12.68;2.30;;;3.50;90.60;;;;;;4921454;29;20080;-86
2022/02/10 20:21:36;;;;;;;15.60;2.05;;;3.50;90.80;;;;;;4927282;29;20893;-86
2022/02/10 20:24:02;;;;;;;12.60;2.53;;;3.40;90.80;;;;;;4924557;29;20055;-86
2022/02/10 20:26:27;;;;;;;10.02;2.83;;;3.40;90.90;;;;;;4939842;29;20036;-86
2022/02/10 20:28:53;;;;;;;13.98;2.53;;;3.40;90.80;;;;;;4942667;28;20535;-87
2022/02/10 20:31:18;;;;;;;11.65;2.25;;;3.50;90.90;;;;;;4924106;29;20543;-86
2022/02/10 20:33:45;;;;;;;7.75;2.22;;;3.60;90.40;;;;;;4942834;29;20053;-85
2022/02/10 20:36:11;;;;;;;14.02;2.60;;;3.60;90.00;;;;;;4938688;29;20032;-85
2022/02/10 20:38:44;;;;;;;7.95;2.20;;;3.70;89.70;;;;;;4941947;28;20472;-85
2022/02/10 20:41:14;;;;;;;7.60;2.03;;;3.70;89.20;;;;;;4926024;29;20452;-86
2022/02/10 20:43:41;;;;;;;15.18;2.63;;;3.80;88.60;;;;;;4930143;29;20404;-86
2022/02/10 20:46:09;;;;;;;14.20;2.75;;;3.80;88.10;;;;;;4929907;29;20493;-86
2022/02/10 20:48:37;;;;;;;14.68;2.53;;;3.90;88.30;;;;;;4927191;29;20036;-86
2022/02/10 20:51:06;;;;;;;15.25;2.67;;;3.80;88.20;;;;;;4939574;28;20515;-86
2022/02/10 20:53:33;;;;;;;6.63;2.10;;;3.70;88.30;;;;;;4926719;29;20032;-86
2022/02/10 20:56:01;;;;;;;12.68;2.58;;;3.70;88.30;;;;;;4920007;29;20059;-86
2022/02/10 20:58:29;;;;;;;15.85;2.40;;;3.70;88.40;;;;;;4940961;28;20031;-86
2022/02/10 21:00:58;;;;;;;9.20;2.05;;;3.60;88.60;;;;;;4929884;29;20473;-86
2022/02/10 21:03:27;;;;;;;12.68;2.47;;;3.60;88.40;;;;;;4930180;29;20489;-86
2022/02/10 21:06:02;;;;;;;19.42;3.13;;;3.50;88.50;;;;;;4932812;29;20034;-86
2022/02/10 21:08:42;;;;;;;17.40;2.70;;;3.50;88.70;;;;;;4946541;28;20039;-86
2022/02/10 21:11:09;;;;;;;13.38;2.50;;;3.50;88.80;;;;;;4931432;29;20024;-86
2022/02/10 21:13:35;;;;;;;15.88;3.10;;;3.40;88.70;;;;;;4918355;29;20048;-86
2022/02/10 21:16:00;;;;;;;12.15;2.22;;;3.40;88.90;;;;;;4926190;29;20027;-86
2022/02/10 21:18:27;;;;;;;12.45;2.20;;;3.30;89.10;;;;;;4931666;29;20067;-86
2022/02/10 21:20:58;;;;;;;16.23;2.65;;;3.30;89.10;;;;;;4941362;28;20807;-87
2022/02/10 21:23:32;;;;;;;12.68;2.63;;;3.20;89.30;;;;;;4946786;28;20031;-86
2022/02/10 21:25:59;;;;;;;9.63;2.20;;;3.30;89.30;;;;;;4949356;29;20118;-86
2022/02/10 21:30:54;;;;;;;11.13;2.17;;;3.30;89.00;;;;;;4943831;29;20024;-86
2022/02/10 21:33:28;;;;;;;12.18;2.13;;;3.20;89.10;;;;;;4926827;29;20016;-86
2022/02/10 21:37:00;;;;;;;11.55;2.30;;;3.20;89.30;;;;;;4918386;29;20032;-86
2022/02/10 21:38:57;;;;;;;11.88;2.22;;;3.10;89.40;;;;;;4922563;29;20094;-86
2022/02/10 21:42:15;;;;;;;11.20;2.22;;;3.10;89.40;;;;;;4929500;29;20028;-86
2022/02/10 22:18:59;;;;;;;12.52;2.45;;;3.10;89.90;;;;;;4924491;29;20095;-86
2022/02/10 22:21:31;;;;;;;15.30;2.38;;;3.10;89.90;;;;;;4937075;29;20028;-86
2022/02/10 22:23:57;;;;;;;11.00;2.80;;;3.10;90.10;;;;;;4947662;29;20122;-86
2022/02/10 22:26:29;;;;;;;16.83;2.67;;;3.20;89.80;;;;;;4928463;29;20032;-86
2022/02/10 22:29:13;;;;;;;14.32;2.70;;;3.10;89.80;;;;;;4933291;29;20065;-86
2022/02/10 22:31:57;;;;;;;11.80;2.50;;;3.10;89.90;;;;;;4922950;29;20027;-86
2022/02/10 22:37:00;;;;;;;11.70;2.38;;;3.10;90.10;;;;;;4921914;29;20024;-84
2022/02/10 22:39:30;;;;;;;15.20;2.55;;;3.10;90.10;;;;;;4922056;29;20027;-84
2022/02/10 22:41:55;;;;;;;15.90;2.57;;;3.10;90.10;;;;;;4921030;29;20050;-84
2022/02/10 22:44:21;;;;;;;12.70;2.50;;;3.10;90.40;;;;;;4942620;28;20447;-84
2022/02/10 22:46:47;;;;;;;8.20;2.17;;;3.00;90.40;;;;;;4943870;28;20028;-84
2022/02/10 22:49:13;;;;;;;14.85;2.92;;;3.10;90.40;;;;;;4927316;29;20087;-84
2022/02/10 22:51:40;;;;;;;6.00;1.73;;;3.10;90.30;;;;;;4921219;29;20040;-84
2022/02/10 22:54:07;;;;;;;10.73;2.30;;;3.10;90.40;;;;;;4936864;29;20175;-84
2022/02/10 22:56:33;;;;;;;11.23;2.40;;;3.10;90.50;;;;;;4931753;29;20031;-84
2022/02/10 22:59:04;;;;;;;8.82;2.58;;;3.10;90.60;;;;;;4938545;28;20031;-83
2022/02/10 23:01:30;;;;;;;10.60;2.55;;;3.10;90.50;;;;;;4944609;29;20049;-84
2022/02/10 23:03:56;;;;;;;9.85;2.05;;;3.10;90.70;;;;;;4946544;28;20031;-84
2022/02/10 23:06:22;;;;;;;13.20;2.55;;;3.00;90.80;;;;;;4923234;28;20111;-84
2022/02/10 23:08:47;;;;;;;16.42;2.63;;;3.00;90.90;;;;;;4938272;28;20032;-83
2022/02/10 23:11:14;;;;;;;19.40;2.78;;;2.90;91.00;;;;;;4931924;29;20082;-84
2022/02/10 23:13:47;;;;;;;12.23;2.47;;;3.00;91.10;;;;;;4928656;29;20083;-84
2022/02/10 23:16:14;;;;;;;14.85;3.33;;;2.90;91.20;;;;;;4931794;29;20396;-84
2022/02/10 23:18:41;;;;;;;10.95;2.70;;;2.90;91.20;;;;;;4929072;29;20024;-84
2022/02/10 23:21:10;;;;;;;16.63;2.80;;;2.80;91.30;;;;;;4942742;28;20042;-84
2022/02/10 23:23:37;;;;;;;12.18;2.97;;;2.80;91.50;;;;;;4927207;29;20032;-83
2022/02/10 23:26:07;;;;;;;13.73;3.05;;;2.80;91.60;;;;;;4930732;29;20024;-84
2022/02/10 23:28:36;;;;;;;11.95;2.83;;;2.80;91.70;;;;;;4928590;29;20039;-84
2022/02/10 23:31:04;;;;;;;12.60;3.22;;;2.80;91.90;;;;;;4931803;29;20721;-84
2022/02/10 23:33:34;;;;;;;9.05;2.85;;;2.80;91.90;;;;;;4933838;29;20043;-84
2022/02/10 23:36:36;;;;;;;10.32;2.60;;;2.90;91.80;;;;;;4935065;29;20139;-84
2022/02/10 23:39:36;;;;;;;9.52;2.47;;;3.00;91.60;;;;;;4939897;29;20070;-84
2022/02/10 23:44:30;;;;;;;11.80;3.33;;;3.00;91.40;;;;;;4933055;29;20440;-84
2022/02/10 23:46:57;;;;;;;8.82;2.85;;;3.00;91.40;;;;;;4925820;29;20033;-84
2022/02/10 23:49:25;;;;;;;12.13;3.10;;;3.00;91.40;;;;;;4929075;29;20429;-84
2022/02/10 23:51:58;;;;;;;14.50;3.40;;;3.00;91.40;;;;;;4927205;29;20054;-84
2022/02/10 23:54:25;;;;;;;10.93;2.42;;;2.90;91.60;;;;;;4933096;29;20040;-84
2022/02/10 23:56:58;;;;;;;12.40;2.75;;;2.90;91.70;;;;;;4922055;29;20024;-84
